Amboy, Illinois
Current Conditions -  °F | °C
As of 9:15 AM on Friday 31 Oct 2014 (Local Time) from KRPJ Reporting Station
Overcast Overcast  
Wind Chill: 23°   Ceiling: 4100
Heat Index: 35°   Visibility: 10mi
Dew Point: 25°   Wind: 26mph
Humidity: 66%   Direction: 350°N
Pressure: 30.22"   Gusts: 33mph
Location:  41.71°N, 89.33°W
Report Text: KRPJ 311415Z AUTO 35023G29KT 10SM OVC041 02/M04 A3022 RMK AO2 T00191039
Loading
Personal Weather Stations






























Interactive Weather Map
Tropical Storm Tracking
New forecast layout! Learn more

10-Day Weather Forecast

Advertisements
Track Severe Weather on mobile